Weather observations for the past three days for
Newton, Newton City/County Airport
Metric (Imperial)
Date Time (cdt) Wind (kph) Vis. (km) Weather Sky Cond. Temperature (ºC) Relative Humidity Wind Chill (°C) Heat Index (°C) Pressure Precipitation (cm)
Air Dwpt 6 hour altimeter (cm) sea level (mb) 1 hr 3 hr 6 hr
Max. Min.
31 06:56 S 17 16.09 Fair CLR 25 15.6 30 25 56% 26 76.17 1013.3
31 04:56 SW 19 16.09 Fair CLR 27.8 15 46% 28 76.12 1012.5
31 03:56 S 26 16.09 Fair CLR 28.3 15.6 46% 28 76.05 1011.6
31 02:56 S 28 16.09 Fair CLR 28.9 15.6 44% 29 76.02 1011.1
31 01:56 S 24 16.09 Fair CLR 29.4 15.6 43% 29 76.05 1011.5
31 00:56 S 22 16.09 Fair CLR 29.4 15 37.8 29.4 42% 29 76.02 1011.3
30 23:56 S 26 16.09 Fair CLR 30.6 15 39% 30 75.95 1010.1
30 22:56 S 26 16.09 Fair CLR 31.1 15.6 39% 31 75.92 1009.9
30 21:56 S 20 16.09 Fair CLR 31.7 15 36% 31 75.92 1010.1
30 20:56 S 20 16.09 Fair CLR 33.3 15.6 34% 33 75.9 1009.5
30 19:56 S 26 16.09 Fair CLR 35 16.7 34% 35 75.82 1008.7
30 18:56 S 26 G 43 16.09 Fair CLR 37.8 16.1 40.6 37.2 28% 38 75.82 1008.6
30 17:56 S 31 G 41 16.09 Fair CLR 38.9 16.1 26% 40 75.77 1008.0
30 16:56 S 37 G 44 16.09 Fair and Breezy CLR 40 15.6 24% 41 75.77 1007.8
30 15:56 SW 41 G 52 16.09 Fair and Breezy CLR 40.6 15.6 23% 41 75.79 1008.0
30 14:56 SW 35 G 50 16.09 Fair and Breezy CLR 40 16.7 25% 41 75.84 1008.9
30 13:56 S 41 G 54 16.09 Fair and Breezy CLR 38.3 17.2 29% 40 75.9 1009.5
30 12:56 S 43 G 54 16.09 Fair and Windy CLR 37.2 17.8 37.2 25 32% 39 75.92 1009.8
30 11:56 S 44 G 54 16.09 Fair and Windy CLR 35.6 17.8 35% 37 75.97 1010.5
30 10:56 S 43 G 54 16.09 Fair and Windy CLR 33.3 17.8 40% 34 75.97 1010.5
30 08:56 S 31 G 44 16.09 Fair CLR 28.9 16.1 46% 29 76.05 1011.8
30 07:56 S 28 16.09 Fair CLR 27.2 15.6 49% 28 76.05 1011.8
30 06:56 S 24 16.09 Fair CLR 25.6 15.6 28.9 25.6 54% 26 76.02 1011.4
30 05:56 S 22 16.09 Fair CLR 26.7 15.6 51% 27 76.02 1011.3
30 04:56 S 28 G 39 16.09 Fair CLR 27.8 15 46% 28 76.02 1011.3
30 03:56 S 33 16.09 Fair and Breezy CLR 28.9 15 43% 29 76.02 1011.1
30 02:56 S 30 16.09 Fair CLR 28.3 15 44% 28 76 1010.9
30 01:56 S 24 16.09 Fair CLR 28.3 15.6 46% 28 76.02 1011.1
30 00:56 S 26 16.09 Fair CLR 28.9 15.6 36.1 28.9 44% 29 76.02 1011.1
29 23:56 S 26 G 37 16.09 Fair CLR 29.4 15.6 43% 29 76.02 1011.3
29 22:56 S 24 16.09 Fair CLR 30 15 40% 30 76.02 1011.3
29 21:56 S 22 G 35 16.09 Fair CLR 30.6 14.4 37% 30 76 1011.2
29 20:56 S 24 16.09 Fair CLR 31.7 14.4 35% 31 75.95 1010.7
29 19:56 S 26 16.09 Fair CLR 33.9 14.4 31% 33 75.9 1010.0
29 18:56 S 30 G 46 16.09 Fair CLR 36.1 13.9 38.9 35.6 26% 35 75.9 1009.8
29 17:56 S 30 G 44 16.09 Fair CLR 37.2 14.4 26% 37 75.9 1009.9
29 16:56 S 35 G 52 16.09 Fair and Breezy CLR 37.2 15 27% 37 75.92 1010.1
29 15:56 S 35 16.09 Fair and Breezy CLR 37.8 15.6 27% 38 75.97 1010.9
29 14:56 S 41 G 48 16.09 Fair and Breezy CLR 37.8 15.6 27% 38 76.05 1011.7
29 13:56 S 43 G 52 16.09 Fair and Windy CLR 36.7 15.6 28% 37 76.07 1012.3
29 12:56 S 33 16.09 Fair and Breezy CLR 35.6 16.7 35.6 18.9 32% 36 76.17 1013.5
29 11:56 S 37 16.09 Fair and Breezy CLR 33.3 16.1 36% 33 76.23 1014.3
29 10:56 S 31 G 44 16.09 Fair CLR 30.6 15.6 40% 30 76.25 1014.8
29 09:56 S 28 16.09 Fair CLR 28.3 14.4 43% 28 76.28 1015.2
29 08:56 S 22 16.09 Fair CLR 25 14.4 52% 26 76.3 1015.7
29 07:56 S 15 16.09 Fair CLR 21.7 13.3 59% 76.3 1015.7
29 06:56 S 9 16.09 Fair CLR 18.9 13.3 22.8 18.9 70% 76.3 1015.5
29 05:56 S 17 16.09 Fair CLR 21.7 12.2 55% 76.33 1015.6
29 04:56 S 15 16.09 Fair CLR 21.7 12.2 55% 76.33 1015.6
29 03:56 S 15 16.09 Fair CLR 20.6 12.2 59% 76.33 1015.8
29 02:56 SE 13 16.09 Fair CLR 20.6 12.8 61% 76.33 1015.9
29 01:56 SE 13 16.09 Fair CLR 21.1 12.8 59% 76.35 1016.1
29 00:56 SE 13 16.09 Fair CLR 22.8 12.8 32.8 22.8 53% 76.35 1016.1
28 23:56 SE 17 16.09 Fair CLR 23.9 12.8 50% 25 76.35 1016.2
28 22:56 SE 17 16.09 Fair CLR 23.9 13.3 52% 25 76.35 1016.2
28 21:56 SE 15 16.09 Fair CLR 25 12.8 47% 26 76.33 1016.2
28 20:56 SE 13 16.09 Fair CLR 25.6 12.8 45% 26 76.3 1015.6
28 19:56 SE 13 16.09 Fair CLR 29.4 12.8 36% 29 76.28 1015.1
28 18:56 S 20 16.09 Fair CLR 33.3 13.3 35.6 31.1 30% 32 76.28 1015.2
28 17:56 S 13 16.09 Fair CLR 34.4 13.9 29% 34 76.3 1015.4
28 16:56 S 24 G 31 16.09 Fair CLR 35 14.4 29% 34 76.33 1016.0
28 15:56 S 20 G 31 16.09 Fair CLR 35 13.9 28% 34 76.4 1016.7
28 14:56 S 17 G 28 16.09 Fair CLR 33.3 15.6 34% 33 76.45 1017.7
28 13:56 S 15 G 30 16.09 A Few Clouds FEW080 32.8 16.1 37% 33 76.53 1018.6
28 12:56 S 20 16.09 A Few Clouds FEW075 31.1 16.1 31.1 20.6 40% 31 76.56 1019.2
28 11:56 S 19 16.09 Mostly Cloudy FEW080 BKN100 28.3 16.1 48% 29 76.63 1020.2
28 10:56 SE 20 16.09 A Few Clouds FEW095 26.7 16.1 52% 27 76.66 1020.3
28 09:56 SE 20 16.09 A Few Clouds FEW100 24.4 15.6 58% 26 76.66 1020.5
28 08:56 SE 15 16.09 Fair CLR 22.8 15.6 64% 76.63 1020.3
28 07:56 SE 13 16.09 A Few Clouds FEW120 21.7 15 66% 76.61 1019.7
Date Time (cdt) Wind (kph) Vis. (km) Weather Sky Cond. Air Dwpt Max. Min. Relative Humidity Wind Chill (°C) Heat Index (°C) altimeter (cm) sea level (mb) 1 hr 3 hr 6 hr
6 hour
Temperature (ºC) Pressure Precipitation (cm)